Decoded Metar for FMSD (TOLAGNARO in MADAGASCAR) (IATA:FTU) | Meteo·Mobile Aviation Weather
aviador You're here:

FMSD Decoded Metar

TOLAGNARO in MADAGASCAR
Report Time2019-07-22 15:00:00
UTC Time2019-07-22 15:58:00
Flight Rules vfr VFR
Wind140° at 06 kt
W.Decomp.*RWY 08: 0.8 kt HW 5.9 kt RCW
Visibility9999 m
Phenomena:N/A
Clouds:Scattered 016 Hf
Expected CloudBase > 3,200 ft AGL from Temp-Dew spread
CeilingNone
Temp19°C (ISA +4)
Dew Point11°C (60% RH)
AAT17.2°C
QNH1023 hPa
Density Alt348 ft
Elevation30 ft
Report Wrong Elevation
Raw Report
METAR FMSD 221500Z 14006KT 9999 SCT016 19/11 Q1023=####018000103####
SPCN31 CWAO 221535

Extra information for FMSD:More info

Metar Taf Metar & Taf Last 4 Metars F.Rules Stats Wind Profile Meteogram Temp Stats Airport Information Weather charts Add Link Nearby VenuesMetar ALERT Operation Metar Decoded Social comments